Terminal Aerodrome Forecast
Issued by NWS

Home | Current Version | Previous Version | Text Only | Print | Product List | Glossary On
Versions: 1 2 3 4 5 6 7 8 9 10 11 12 13 14 15 16 17 18 19
000
FTUS41 KPBZ 190539
TAFMGW
TAF
KMGW 190539Z 1906/2006 03003KT P6SM BKN200
     FM191000 06007KT P6SM BKN100 WS020/14030KT
     FM191500 12012G22KT P6SM BKN150
     FM192100 13012G22KT 5SM -SHRA OVC035=

USA.gov is the U.S. government's official web portal to all federal, state and local government web resources and services.